Time;durP1;ratioP1;P1;durP2;ratioP2;P2;SDS_P1;SDS_P2;PMS_P1;PMS_P2;Temp;Humidity;BMP_temperature;BMP_pressure;BME280_temperature;BME280_humidity;BME280_pressure;Samples;Min_cycle;Max_cycle;Signal;HPM_P1;HPM_P2
2023/05/05 00:01:03;;;;;;;1.70;1.40;;;;;;;-148.14;100.00;71486.72;1726270;75;41631;-78
2023/05/05 00:03:34;;;;;;;1.60;1.50;;;;;;;-148.14;100.00;71486.72;1726869;75;41435;-77
2023/05/05 00:06:04;;;;;;;1.40;1.30;;;;;;;-148.14;100.00;71486.72;1726107;75;41113;-76
2023/05/05 00:08:33;;;;;;;1.20;1.10;;;;;;;-148.14;100.00;71486.72;1726570;83;41376;-76
2023/05/05 00:11:03;;;;;;;1.10;1.00;;;;;;;-148.14;100.00;71486.72;1726079;75;41140;-77
2023/05/05 00:13:32;;;;;;;1.30;1.10;;;;;;;-148.14;100.00;71486.72;1726659;75;42175;-77
2023/05/05 00:16:05;;;;;;;1.30;1.00;;;;;;;-148.14;100.00;71486.72;1725751;75;41923;-77
2023/05/05 00:18:35;;;;;;;1.10;1.00;;;;;;;-148.14;100.00;71486.72;1726536;75;41465;-75
2023/05/05 00:21:05;;;;;;;1.20;1.10;;;;;;;-148.14;100.00;71486.72;1725746;75;42267;-74
2023/05/05 00:23:35;;;;;;;0.80;0.80;;;;;;;-148.14;100.00;71486.72;1726832;75;41797;-76
2023/05/05 00:26:04;;;;;;;1.40;1.10;;;;;;;-148.14;100.00;71486.72;1725697;83;41281;-77
2023/05/05 00:28:34;;;;;;;0.80;0.80;;;;;;;-148.14;100.00;71486.72;1726354;75;41648;-75
2023/05/05 00:31:06;;;;;;;1.50;1.10;;;;;;;-148.14;100.00;71486.72;1725939;75;41216;-77
2023/05/05 00:33:35;;;;;;;0.90;0.80;;;;;;;-148.14;100.00;71486.72;1726655;83;41800;-75
2023/05/05 00:36:05;;;;;;;1.00;1.00;;;;;;;-148.14;100.00;71486.72;1726087;75;41604;-79
2023/05/05 00:38:34;;;;;;;1.00;0.90;;;;;;;-148.14;100.00;71486.72;1726212;75;42031;-77
2023/05/05 00:41:04;;;;;;;1.00;0.90;;;;;;;-148.14;100.00;71486.72;1726352;75;41457;-77
2023/05/05 00:43:34;;;;;;;1.50;1.10;;;;;;;-148.14;100.00;71486.72;1726650;75;41253;-78
2023/05/05 00:46:15;;;;;;;1.00;1.00;;;;;;;-148.14;100.00;71486.72;1726342;75;41236;-76
2023/05/05 00:48:45;;;;;;;1.10;1.00;;;;;;;-148.14;100.00;71486.72;1726883;75;43090;-76
2023/05/05 00:51:16;;;;;;;1.10;1.00;;;;;;;-148.14;100.00;71486.72;1726109;75;41267;-76
2023/05/05 00:53:46;;;;;;;1.00;0.80;;;;;;;-148.14;100.00;71486.72;1726137;75;41792;-75
2023/05/05 00:56:16;;;;;;;1.30;1.00;;;;;;;-148.14;100.00;71486.72;1725327;75;41110;-75
2023/05/05 00:58:46;;;;;;;1.10;1.00;;;;;;;-148.14;100.00;71486.72;1726524;75;41985;-76
2023/05/05 01:01:19;;;;;;;1.30;1.20;;;;;;;-148.14;100.00;71486.72;1725843;83;41307;-75
2023/05/05 01:03:48;;;;;;;1.00;0.90;;;;;;;-148.14;100.00;71486.72;1726945;75;41312;-76
2023/05/05 01:06:32;;;;;;;1.00;0.90;;;;;;;-148.14;100.00;71486.72;1725939;75;41572;-76
2023/05/05 01:09:08;;;;;;;1.20;1.10;;;;;;;-148.14;100.00;71486.72;1726073;83;42307;-77
2023/05/05 01:11:47;;;;;;;1.40;1.20;;;;;;;-148.14;100.00;71486.72;1725106;75;41205;-78
2023/05/05 01:14:19;;;;;;;1.30;1.20;;;;;;;-148.14;100.00;71486.72;1727311;75;41576;-77
2023/05/05 01:17:00;;;;;;;1.10;1.00;;;;;;;-148.14;100.00;71486.72;1725257;75;41523;-75
2023/05/05 01:19:50;;;;;;;0.90;0.90;;;;;;;-148.14;100.00;71486.72;1727180;75;41271;-77
2023/05/05 01:22:25;;;;;;;1.10;1.00;;;;;;;-148.14;100.00;71486.72;1725631;75;41387;-76
2023/05/05 01:25:11;;;;;;;1.30;1.10;;;;;;;-148.14;100.00;71486.72;1727132;75;42043;-76
2023/05/05 01:27:54;;;;;;;2.00;1.30;;;;;;;-148.14;100.00;71486.72;1725053;83;41709;-76
2023/05/05 01:30:38;;;;;;;1.10;1.00;;;;;;;-148.14;100.00;71486.72;1726410;75;41169;-77
2023/05/05 01:33:13;;;;;;;1.20;1.10;;;;;;;-148.14;100.00;71486.72;1725479;83;41119;-77
2023/05/05 01:35:44;;;;;;;1.00;1.00;;;;;;;-148.14;100.00;71486.72;1726785;75;41775;-77
2023/05/05 01:38:18;;;;;;;1.10;1.00;;;;;;;-148.14;100.00;71486.72;1726019;75;41226;-76
2023/05/05 01:40:50;;;;;;;1.40;1.20;;;;;;;-148.14;100.00;71486.72;1726810;75;42888;-77
2023/05/05 01:43:22;;;;;;;1.70;1.20;;;;;;;-148.14;100.00;71486.72;1726519;75;41278;-76
2023/05/05 01:45:51;;;;;;;2.10;1.50;;;;;;;-148.14;100.00;71486.72;1726285;83;41708;-75
2023/05/05 01:48:25;;;;;;;2.70;1.10;;;;;;;-148.14;100.00;71486.72;1726645;75;41113;-76
2023/05/05 01:50:55;;;;;;;1.50;1.40;;;;;;;-148.14;100.00;71486.72;1727460;75;42354;-76
2023/05/05 01:53:26;;;;;;;1.20;1.10;;;;;;;-148.14;100.00;71486.72;1726981;75;41323;-75
2023/05/05 01:55:57;;;;;;;1.30;1.10;;;;;;;-148.14;100.00;71486.72;1727436;75;42550;-78
2023/05/05 01:58:28;;;;;;;1.00;1.00;;;;;;;-148.14;100.00;71486.72;1726290;83;41318;-77
2023/05/05 02:00:59;;;;;;;1.20;1.10;;;;;;;-148.14;100.00;71486.72;1726807;75;42563;-79
2023/05/05 02:03:32;;;;;;;1.30;1.10;;;;;;;-148.14;100.00;71486.72;1726269;83;41341;-77
2023/05/05 02:06:03;;;;;;;1.00;1.00;;;;;;;-148.14;100.00;71486.72;1726619;75;41849;-76
2023/05/05 02:08:32;;;;;;;1.10;0.80;;;;;;;-148.14;100.00;71486.72;1726212;75;41591;-75
2023/05/05 02:11:02;;;;;;;1.10;1.00;;;;;;;-148.14;100.00;71486.72;1726844;75;42564;-75
2023/05/05 02:13:34;;;;;;;1.00;0.90;;;;;;;-148.14;100.00;71486.72;1726534;75;42039;-75
2023/05/05 02:16:04;;;;;;;1.00;0.90;;;;;;;-148.14;100.00;71486.72;1725901;75;41573;-76
2023/05/05 02:18:37;;;;;;;1.20;1.00;;;;;;;-148.14;100.00;71486.72;1725961;75;41124;-75
2023/05/05 02:21:07;;;;;;;0.80;0.80;;;;;;;-148.14;100.00;71486.72;1726603;75;41468;-76
2023/05/05 02:23:37;;;;;;;1.30;1.20;;;;;;;-148.14;100.00;71486.72;1726486;75;41755;-79
2023/05/05 02:26:10;;;;;;;1.30;1.20;;;;;;;-148.14;100.00;71486.72;1725726;75;42027;-76
2023/05/05 02:28:44;;;;;;;1.00;0.90;;;;;;;-148.14;100.00;71486.72;1726402;83;41572;-78
2023/05/05 02:31:15;;;;;;;1.20;1.10;;;;;;;-148.14;100.00;71486.72;1725994;75;42072;-78
2023/05/05 02:33:48;;;;;;;1.00;1.00;;;;;;;-148.14;100.00;71486.72;1726672;83;41497;-78
2023/05/05 02:36:22;;;;;;;1.30;1.20;;;;;;;-148.14;100.00;71486.72;1725795;75;41777;-77
2023/05/05 02:38:55;;;;;;;0.80;0.80;;;;;;;-148.14;100.00;71486.72;1727060;75;41791;-77
2023/05/05 02:41:25;;;;;;;1.10;0.90;;;;;;;-148.14;100.00;71486.72;1725638;75;42213;-76
2023/05/05 02:43:56;;;;;;;0.90;0.80;;;;;;;-148.14;100.00;71486.72;1727079;75;41889;-77
2023/05/05 02:46:25;;;;;;;2.10;0.90;;;;;;;-148.14;100.00;71486.72;1725490;75;41699;-76
2023/05/05 02:48:58;;;;;;;1.50;0.90;;;;;;;-148.14;100.00;71486.72;1726897;75;41100;-75
2023/05/05 02:51:28;;;;;;;0.90;0.90;;;;;;;-148.14;100.00;71486.72;1725458;75;41227;-77
2023/05/05 02:53:57;;;;;;;1.00;0.90;;;;;;;-148.14;100.00;71486.72;1727252;75;41447;-76
2023/05/05 02:56:33;;;;;;;1.20;1.10;;;;;;;-148.14;100.00;71486.72;1725402;75;41193;-76
2023/05/05 02:59:15;;;;;;;1.00;0.90;;;;;;;-148.14;100.00;71486.72;1727266;75;41415;-79
2023/05/05 03:01:54;;;;;;;1.50;0.90;;;;;;;-148.14;100.00;71486.72;1724170;75;41503;-77
2023/05/05 03:04:32;;;;;;;1.10;1.00;;;;;;;-148.14;100.00;71486.72;1726340;75;41806;-77
2023/05/05 03:07:01;;;;;;;;;;;;;;;-148.14;100.00;71486.72;1723855;75;43264;-77
2023/05/05 03:09:35;;;;;;;1.00;0.90;;;;;;;-148.14;100.00;71486.72;1726240;75;41323;-76
2023/05/05 03:12:07;;;;;;;0.90;0.90;;;;;;;-148.14;100.00;71486.72;1724564;83;41427;-75
2023/05/05 03:14:40;;;;;;;1.00;0.90;;;;;;;-148.14;100.00;71486.72;1725946;75;41880;-77
2023/05/05 03:17:10;;;;;;;1.50;0.90;;;;;;;-148.14;100.00;71486.72;1724296;75;41587;-78
2023/05/05 03:19:44;;;;;;;1.10;1.00;;;;;;;-148.14;100.00;71486.72;1725759;75;41838;-77
2023/05/05 03:22:13;;;;;;;1.10;1.00;;;;;;;-148.14;100.00;71486.72;1724744;75;41814;-75
2023/05/05 03:24:46;;;;;;;1.00;1.00;;;;;;;-148.14;100.00;71486.72;1726226;75;41438;-79
2023/05/05 03:27:15;;;;;;;1.10;1.00;;;;;;;-148.14;100.00;71486.72;1724368;75;41156;-75
2023/05/05 03:29:44;;;;;;;1.30;0.90;;;;;;;-148.14;100.00;71486.72;1725407;83;41523;-76
2023/05/05 03:32:14;;;;;;;1.30;1.20;;;;;;;-148.14;100.00;71486.72;1724553;75;41115;-78
2023/05/05 03:34:46;;;;;;;1.20;1.10;;;;;;;-148.14;100.00;71486.72;1725612;75;41568;-74
2023/05/05 03:37:15;;;;;;;1.30;1.20;;;;;;;-148.14;100.00;71486.72;1724301;75;41271;-77
2023/05/05 03:39:45;;;;;;;1.50;1.20;;;;;;;-148.14;100.00;71486.72;1725666;75;42687;-76
2023/05/05 03:42:14;;;;;;;1.30;1.10;;;;;;;-148.14;100.00;71486.72;1724650;75;41530;-76
2023/05/05 03:44:44;;;;;;;1.40;1.30;;;;;;;-148.14;100.00;71486.72;1726130;75;42225;-78
2023/05/05 03:47:13;;;;;;;1.30;1.00;;;;;;;-148.14;100.00;71486.72;1724122;75;41788;-78
2023/05/05 03:49:45;;;;;;;1.70;1.30;;;;;;;-148.14;100.00;71486.72;1725851;83;41149;-77
2023/05/05 03:52:15;;;;;;;1.20;1.10;;;;;;;-148.14;100.00;71486.72;1724758;75;41549;-76
2023/05/05 03:54:44;;;;;;;1.90;1.30;;;;;;;-148.14;100.00;71486.72;1726629;83;41293;-79
2023/05/05 03:57:14;;;;;;;1.20;1.10;;;;;;;-148.14;100.00;71486.72;1725580;75;41464;-74
2023/05/05 03:59:43;;;;;;;1.90;1.20;;;;;;;-148.14;100.00;71486.72;1726326;83;41512;-75
2023/05/05 04:02:13;;;;;;;1.70;1.30;;;;;;;-148.14;100.00;71486.72;1724745;75;41234;-77
2023/05/05 04:04:45;;;;;;;3.80;3.40;;;;;;;-148.14;100.00;71486.72;1726760;75;41796;-75
2023/05/05 04:07:14;;;;;;;4.90;4.30;;;;;;;-148.14;100.00;71486.72;1724772;75;41178;-76
2023/05/05 04:09:45;;;;;;;6.40;4.40;;;;;;;-148.14;100.00;71486.72;1726187;75;41790;-78
2023/05/05 04:12:15;;;;;;;9.00;7.10;;;;;;;-148.14;100.00;71486.72;1725097;75;41799;-79
2023/05/05 04:14:45;;;;;;;6.60;5.50;;;;;;;-148.14;100.00;71486.72;1726407;75;41142;-76
2023/05/05 04:17:14;;;;;;;5.50;4.30;;;;;;;-148.14;100.00;71486.72;1724710;75;41534;-77
2023/05/05 04:19:46;;;;;;;6.70;5.90;;;;;;;-148.14;100.00;71486.72;1725951;75;41323;-77
2023/05/05 04:22:16;;;;;;;7.20;5.90;;;;;;;-148.14;100.00;71486.72;1725658;75;41770;-75
2023/05/05 04:24:46;;;;;;;5.20;4.30;;;;;;;-148.14;100.00;71486.72;1725411;75;41794;-76
2023/05/05 04:27:15;;;;;;;6.00;4.10;;;;;;;-148.14;100.00;71486.72;1726398;75;41249;-74
2023/05/05 04:29:45;;;;;;;6.00;5.00;;;;;;;-148.14;100.00;71486.72;1724669;83;41704;-76
2023/05/05 04:32:14;;;;;;;5.30;4.00;;;;;;;-148.14;100.00;71486.72;1726333;75;41459;-77
2023/05/05 04:34:46;;;;;;;4.10;3.00;;;;;;;-148.14;100.00;71486.72;1724774;75;41976;-75
2023/05/05 04:37:16;;;;;;;4.70;3.00;;;;;;;-148.14;100.00;71486.72;1726197;83;41653;-78
2023/05/05 04:39:45;;;;;;;3.10;2.60;;;;;;;-148.14;100.00;71486.72;1724290;75;42438;-76
2023/05/05 04:42:15;;;;;;;2.40;2.10;;;;;;;-148.14;100.00;71486.72;1726994;83;41413;-76
2023/05/05 04:44:44;;;;;;;2.20;1.90;;;;;;;-148.14;100.00;71486.72;1724812;75;41726;-75
2023/05/05 04:47:14;;;;;;;2.60;1.80;;;;;;;-148.14;100.00;71486.72;1726395;75;41183;-77
2023/05/05 04:49:46;;;;;;;2.00;1.70;;;;;;;-148.14;100.00;71486.72;1724558;75;42030;-75
2023/05/05 04:52:15;;;;;;;2.70;1.90;;;;;;;-148.14;100.00;71486.72;1726602;75;41562;-76
2023/05/05 04:54:45;;;;;;;1.90;1.60;;;;;;;-148.14;100.00;71486.72;1724440;75;41411;-76
2023/05/05 04:57:14;;;;;;;2.00;1.50;;;;;;;-148.14;100.00;71486.72;1727297;75;41634;-78
2023/05/05 04:59:44;;;;;;;1.50;1.30;;;;;;;-148.14;100.00;71486.72;1724577;75;41260;-78
2023/05/05 05:02:13;;;;;;;1.50;1.30;;;;;;;-148.14;100.00;71486.72;1727033;75;42414;-78
2023/05/05 05:04:45;;;;;;;2.20;1.20;;;;;;;-148.14;100.00;71486.72;1724728;75;41754;-75
2023/05/05 05:07:16;;;;;;;1.60;1.50;;;;;;;-148.14;100.00;71486.72;1726370;75;41336;-76
2023/05/05 05:09:45;;;;;;;1.90;1.50;;;;;;;-148.14;100.00;71486.72;1724178;75;41752;-77
2023/05/05 05:12:15;;;;;;;1.70;1.60;;;;;;;-148.14;100.00;71486.72;1726479;75;41196;-76
2023/05/05 05:14:44;;;;;;;2.20;1.50;;;;;;;-148.14;100.00;71486.72;1724458;75;41584;-76
2023/05/05 05:17:15;;;;;;;1.90;1.70;;;;;;;-148.14;100.00;71486.72;1726212;75;42019;-76
2023/05/05 05:19:48;;;;;;;2.80;2.10;;;;;;;-148.14;100.00;71486.72;1723955;75;41341;-76
2023/05/05 05:22:17;;;;;;;2.00;1.80;;;;;;;-148.14;100.00;71486.72;1726252;75;41622;-77
2023/05/05 05:24:46;;;;;;;2.40;1.90;;;;;;;-148.14;100.00;71486.72;1724823;75;41709;-76
2023/05/05 05:27:16;;;;;;;2.40;2.00;;;;;;;-148.14;100.00;71486.72;1725761;75;41247;-75
2023/05/05 05:29:45;;;;;;;2.70;2.10;;;;;;;-148.14;100.00;71486.72;1724041;83;41716;-75
2023/05/05 05:32:15;;;;;;;4.70;3.30;;;;;;;-148.14;100.00;71486.72;1726220;75;41137;-76
2023/05/05 05:34:47;;;;;;;4.30;3.50;;;;;;;-148.14;100.00;71486.72;1724552;75;41724;-76
2023/05/05 05:37:16;;;;;;;7.40;3.60;;;;;;;-148.14;100.00;71486.72;1725497;75;41297;-74
2023/05/05 05:39:46;;;;;;;4.20;3.80;;;;;;;-148.14;100.00;71486.72;1725632;75;41705;-78
2023/05/05 05:42:15;;;;;;;5.70;4.70;;;;;;;-148.14;100.00;71486.72;1726559;75;41589;-75
2023/05/05 05:44:45;;;;;;;6.00;4.90;;;;;;;-148.14;100.00;71486.72;1726998;75;41994;-76
2023/05/05 05:47:15;;;;;;;4.70;3.90;;;;;;;-148.14;100.00;71486.72;1725461;75;41795;-76
2023/05/05 05:49:47;;;;;;;7.50;4.90;;;;;;;-148.14;100.00;71486.72;1726379;75;41264;-75
2023/05/05 05:52:16;;;;;;;6.50;4.60;;;;;;;-148.14;100.00;71486.72;1725299;75;41641;-75
2023/05/05 05:54:46;;;;;;;7.00;5.30;;;;;;;-148.14;100.00;71486.72;1727084;75;41487;-74
2023/05/05 05:57:15;;;;;;;5.20;4.60;;;;;;;-148.14;100.00;71486.72;1724266;75;41145;-75
2023/05/05 05:59:45;;;;;;;5.30;4.50;;;;;;;-148.14;100.00;71486.72;1726054;83;41805;-74
2023/05/05 06:02:15;;;;;;;3.90;3.50;;;;;;;-148.14;100.00;71486.72;1724773;75;41493;-75
2023/05/05 06:04:50;;;;;;;4.80;3.50;;;;;;;-148.14;100.00;71486.72;1725983;75;41245;-73
2023/05/05 06:07:19;;;;;;;4.30;3.70;;;;;;;-148.14;100.00;71486.72;1725640;83;41575;-75
2023/05/05 06:09:50;;;;;;;7.40;5.10;;;;;;;-148.14;100.00;71486.72;1727299;75;41373;-77
2023/05/05 06:12:19;;;;;;;5.90;4.90;;;;;;;-148.14;100.00;71486.72;1726442;75;41236;-77
2023/05/05 06:14:49;;;;;;;8.30;5.10;;;;;;;-148.14;100.00;71486.72;1727583;75;41231;-76
2023/05/05 06:17:18;;;;;;;5.60;4.40;;;;;;;-148.14;100.00;71486.72;1726299;75;41537;-76
2023/05/05 06:19:50;;;;;;;5.20;3.70;;;;;;;-148.14;100.00;71486.72;1727354;75;41289;-77
2023/05/05 06:22:20;;;;;;;5.80;4.00;;;;;;;-148.14;100.00;71486.72;1725709;83;41300;-75
2023/05/05 06:24:50;;;;;;;6.20;4.50;;;;;;;-148.14;100.00;71486.72;1726673;75;41964;-78
2023/05/05 06:27:19;;;;;;;5.80;4.60;;;;;;;-148.14;100.00;71486.72;1725193;75;41621;-75
2023/05/05 06:29:49;;;;;;;6.90;4.50;;;;;;;-148.14;100.00;71486.72;1726057;75;41390;-74
2023/05/05 06:32:19;;;;;;;4.90;3.90;;;;;;;-148.14;100.00;71486.72;1725457;75;41999;-74
2023/05/05 06:34:51;;;;;;;6.90;5.00;;;;;;;-148.14;100.00;71486.72;1726465;83;41201;-75
2023/05/05 06:37:20;;;;;;;7.20;4.70;;;;;;;-148.14;100.00;71486.72;1725637;75;41376;-74
2023/05/05 06:39:50;;;;;;;5.80;4.40;;;;;;;-148.14;100.00;71486.72;1726659;75;41692;-77
2023/05/05 06:42:20;;;;;;;5.70;4.50;;;;;;;-148.14;100.00;71486.72;1725830;75;41461;-76
2023/05/05 06:44:49;;;;;;;5.10;4.00;;;;;;;-148.14;100.00;71486.72;1726823;75;41353;-76
2023/05/05 06:47:19;;;;;;;4.70;3.50;;;;;;;-148.14;100.00;71486.72;1725979;75;41797;-77
2023/05/05 06:49:51;;;;;;;4.10;3.50;;;;;;;-148.14;100.00;71486.72;1726329;75;41529;-76
2023/05/05 06:52:20;;;;;;;4.20;3.30;;;;;;;-148.14;100.00;71486.72;1725545;75;41135;-75
2023/05/05 06:54:56;;;;;;;6.20;4.30;;;;;;;-148.14;100.00;71486.72;1726819;75;41516;-74
2023/05/05 06:57:25;;;;;;;6.20;4.00;;;;;;;-148.14;100.00;71486.72;1725572;83;41572;-75
2023/05/05 06:59:55;;;;;;;8.50;5.50;;;;;;;-148.14;100.00;71486.72;1726824;75;41111;-74
2023/05/05 07:02:25;;;;;;;6.00;4.80;;;;;;;-148.14;100.00;71486.72;1726086;75;41587;-75
2023/05/05 07:04:57;;;;;;;6.90;4.80;;;;;;;-148.14;100.00;71486.72;1726351;75;41535;-75
2023/05/05 07:07:26;;;;;;;5.60;4.60;;;;;;;-148.14;100.00;71486.72;1725720;75;41175;-76
2023/05/05 07:09:56;;;;;;;5.30;4.20;;;;;;;-148.14;100.00;71486.72;1725672;75;41857;-75
2023/05/05 07:12:26;;;;;;;4.80;3.60;;;;;;;-148.14;100.00;71486.72;1727018;75;41095;-76
2023/05/05 07:14:58;;;;;;;5.60;4.10;;;;;;;-148.14;100.00;71486.72;1725564;75;41706;-75
2023/05/05 07:17:27;;;;;;;4.70;3.40;;;;;;;-148.14;100.00;71486.72;1726890;75;41302;-73
2023/05/05 07:19:59;;;;;;;6.00;3.70;;;;;;;-148.14;100.00;71486.72;1724958;75;41748;-78
2023/05/05 07:22:29;;;;;;;3.80;2.70;;;;;;;-148.14;100.00;71486.72;1726898;75;41817;-76
2023/05/05 07:24:58;;;;;;;5.20;3.10;;;;;;;-148.14;100.00;71486.72;1725658;75;41442;-76
2023/05/05 07:27:28;;;;;;;5.40;3.80;;;;;;;-148.14;100.00;71486.72;1727005;75;41328;-76
2023/05/05 07:29:57;;;;;;;5.10;3.30;;;;;;;-148.14;100.00;71486.72;1725102;75;41258;-76
2023/05/05 07:32:27;;;;;;;5.30;3.40;;;;;;;-148.14;100.00;71486.72;1726844;83;41195;-75
2023/05/05 07:34:59;;;;;;;6.80;3.70;;;;;;;-148.14;100.00;71486.72;1725315;75;41811;-78
2023/05/05 07:37:29;;;;;;;4.70;3.30;;;;;;;-148.14;100.00;71486.72;1726173;75;41505;-76
2023/05/05 07:39:58;;;;;;;5.80;3.90;;;;;;;-148.14;100.00;71486.72;1725229;75;42732;-75
2023/05/05 07:42:28;;;;;;;5.60;4.60;;;;;;;-148.14;100.00;71486.72;1726714;75;41682;-75
2023/05/05 07:44:58;;;;;;;6.40;4.50;;;;;;;-148.14;100.00;71486.72;1725155;75;42007;-76
2023/05/05 07:47:27;;;;;;;5.40;3.90;;;;;;;-148.14;100.00;71486.72;1726791;75;41161;-74
2023/05/05 07:50:00;;;;;;;4.90;3.40;;;;;;;-148.14;100.00;71486.72;1724493;75;41783;-77
2023/05/05 07:52:29;;;;;;;3.70;2.80;;;;;;;-148.14;100.00;71486.72;1727006;75;42314;-76
2023/05/05 07:54:59;;;;;;;6.90;3.40;;;;;;;-148.14;100.00;71486.72;1725259;75;41362;-75
2023/05/05 07:57:29;;;;;;;4.70;3.40;;;;;;;-148.14;100.00;71486.72;1726370;75;41522;-77
2023/05/05 07:59:58;;;;;;;11.40;4.30;;;;;;;-148.14;100.00;71486.72;1724323;75;41769;-75
2023/05/05 08:02:28;;;;;;;5.10;3.90;;;;;;;-148.14;100.00;71486.72;1726914;83;41298;-76
2023/05/05 08:05:00;;;;;;;6.50;4.80;;;;;;;-148.14;100.00;71486.72;1725026;75;41716;-77
2023/05/05 08:07:29;;;;;;;6.10;3.90;;;;;;;-148.14;100.00;71486.72;1726127;75;42170;-75
2023/05/05 08:09:59;;;;;;;4.90;3.90;;;;;;;-148.14;100.00;71486.72;1724999;75;41508;-75
2023/05/05 08:12:28;;;;;;;7.40;4.20;;;;;;;-148.14;100.00;71486.72;1726455;75;41588;-76
2023/05/05 08:14:58;;;;;;;4.60;3.60;;;;;;;-148.14;100.00;71486.72;1725372;83;41542;-77
2023/05/05 08:17:27;;;;;;;4.90;2.90;;;;;;;-148.14;100.00;71486.72;1726624;75;41323;-77
2023/05/05 08:19:59;;;;;;;4.90;2.70;;;;;;;-148.14;100.00;71486.72;1725069;75;42333;-77
2023/05/05 08:22:29;;;;;;;4.70;3.10;;;;;;;-148.14;100.00;71486.72;1726577;75;41556;-73
2023/05/05 08:24:58;;;;;;;4.40;3.30;;;;;;;-148.14;100.00;71486.72;1726096;75;41687;-78
2023/05/05 08:27:28;;;;;;;5.50;3.90;;;;;;;-148.14;100.00;71486.72;1726472;75;41305;-75
2023/05/05 08:29:57;;;;;;;5.40;4.40;;;;;;;-148.14;100.00;71486.72;1726613;75;41658;-76
2023/05/05 08:32:27;;;;;;;7.70;5.00;;;;;;;-148.14;100.00;71486.72;1725309;75;42070;-76
2023/05/05 08:34:56;;;;;;;4.20;3.30;;;;;;;-148.14;100.00;71486.72;1726060;75;41464;-77
2023/05/05 08:37:28;;;;;;;5.70;3.50;;;;;;;-148.14;100.00;71486.72;1724703;75;41189;-74
2023/05/05 08:39:59;;;;;;;5.20;3.30;;;;;;;-148.14;100.00;71486.72;1726173;83;41487;-77
2023/05/05 08:42:28;;;;;;;10.50;3.50;;;;;;;-148.14;100.00;71486.72;1724827;83;41542;-77
2023/05/05 08:44:58;;;;;;;4.60;3.50;;;;;;;-148.14;100.00;71486.72;1726784;75;41383;-77
2023/05/05 08:47:27;;;;;;;4.30;3.30;;;;;;;-148.14;100.00;71486.72;1725486;75;41279;-78
2023/05/05 08:49:58;;;;;;;5.30;3.40;;;;;;;-148.14;100.00;71486.72;1726375;83;41668;-76
2023/05/05 08:52:34;;;;;;;8.30;3.90;;;;;;;-148.14;100.00;71486.72;1725320;75;41292;-77
2023/05/05 08:55:08;;;;;;;4.70;3.40;;;;;;;-148.14;100.00;71486.72;1726447;75;42321;-75
2023/05/05 08:57:41;;;;;;;4.20;3.40;;;;;;;-148.14;100.00;71486.72;1725398;83;41797;-75
2023/05/05 09:00:12;;;;;;;3.80;3.10;;;;;;;-148.14;100.00;71486.72;1725769;75;42133;-79
2023/05/05 09:02:44;;;;;;;4.40;3.10;;;;;;;-148.14;100.00;71486.72;1724746;83;41606;-75
2023/05/05 09:05:14;;;;;;;4.80;2.90;;;;;;;-148.14;100.00;71486.72;1726088;75;42269;-75
2023/05/05 09:07:46;;;;;;;5.00;3.00;;;;;;;-148.14;100.00;71486.72;1724890;75;41725;-76
2023/05/05 09:10:16;;;;;;;4.30;3.10;;;;;;;-148.14;100.00;71486.72;1725903;75;41532;-77
2023/05/05 09:12:45;;;;;;;6.70;4.00;;;;;;;-148.14;100.00;71486.72;1724561;75;41169;-77
2023/05/05 09:15:16;;;;;;;4.60;3.40;;;;;;;-148.14;100.00;71486.72;1725708;75;41375;-75
2023/05/05 09:17:45;;;;;;;3.80;3.00;;;;;;;-148.14;100.00;71486.72;1724898;75;41309;-76
2023/05/05 09:20:21;;;;;;;4.40;2.70;;;;;;;-148.14;100.00;71486.72;1726460;75;41275;-74
2023/05/05 09:22:53;;;;;;;5.70;3.00;;;;;;;-148.14;100.00;71486.72;1726151;75;42347;-75
2023/05/05 09:25:23;;;;;;;3.60;2.50;;;;;;;-148.14;100.00;71486.72;1727007;75;42552;-74
2023/05/05 09:27:53;;;;;;;2.50;2.00;;;;;;;-148.14;100.00;71486.72;1724938;75;41535;-75
2023/05/05 09:30:26;;;;;;;2.30;1.80;;;;;;;-148.14;100.00;71486.72;1725931;75;41747;-74
2023/05/05 09:32:57;;;;;;;3.20;2.40;;;;;;;-148.14;100.00;71486.72;1724991;83;41190;-74
2023/05/05 09:35:27;;;;;;;2.60;2.00;;;;;;;-148.14;100.00;71486.72;1726715;75;41476;-74
2023/05/05 09:38:00;;;;;;;4.20;2.70;;;;;;;-148.14;100.00;71486.72;1725632;75;41498;-77
2023/05/05 09:40:30;;;;;;;3.40;2.60;;;;;;;-148.14;100.00;71486.72;1725840;75;43622;-74
2023/05/05 09:43:05;;;;;;;3.60;2.50;;;;;;;-148.14;100.00;71486.72;1726035;75;41449;-76
2023/05/05 09:45:35;;;;;;;3.50;2.80;;;;;;;-148.14;100.00;71486.72;1726385;75;41864;-76
2023/05/05 09:48:05;;;;;;;5.20;2.80;;;;;;;-148.14;100.00;71486.72;1725525;83;41575;-76
2023/05/05 09:50:45;;;;;;;2.80;2.00;;;;;;;-148.14;100.00;71486.72;1725656;83;41259;-77
2023/05/05 09:53:17;;;;;;;4.80;2.50;;;;;;;-148.14;100.00;71486.72;1724191;75;41115;-76
2023/05/05 09:55:57;;;;;;;2.50;2.20;;;;;;;-148.14;100.00;71486.72;1726524;75;41649;-76
2023/05/05 09:58:28;;;;;;;4.50;2.70;;;;;;;-148.14;100.00;71486.72;1723238;75;41224;-75
2023/05/05 10:00:58;;;;;;;2.80;1.80;;;;;;;-148.14;100.00;71486.72;1724971;75;41789;-75
2023/05/05 10:03:28;;;;;;;3.40;2.00;;;;;;;-148.14;100.00;71486.72;1723259;75;41381;-75
2023/05/05 10:05:59;;;;;;;4.70;2.30;;;;;;;-148.14;100.00;71486.72;1726091;75;41563;-76
2023/05/05 10:08:33;;;;;;;3.20;1.80;;;;;;;-148.14;100.00;71486.72;1723945;75;41460;-75
2023/05/05 10:11:06;;;;;;;2.90;1.90;;;;;;;-148.14;100.00;71486.72;1725622;83;41102;-77
2023/05/05 10:13:38;;;;;;;2.70;1.70;;;;;;;-148.14;100.00;71486.72;1723453;83;42802;-76
2023/05/05 10:16:11;;;;;;;3.20;1.90;;;;;;;-148.14;100.00;71486.72;1725014;75;41491;-78
2023/05/05 10:18:42;;;;;;;2.70;2.20;;;;;;;-148.14;100.00;71486.72;1724017;75;41950;-78
2023/05/05 10:21:13;;;;;;;2.30;2.10;;;;;;;-148.14;100.00;71486.72;1725449;75;41570;-75
2023/05/05 10:23:51;;;;;;;2.40;1.70;;;;;;;-148.14;100.00;71486.72;1724374;75;42059;-79
2023/05/05 10:26:22;;;;;;;4.50;2.00;;;;;;;-148.14;100.00;71486.72;1724654;75;41607;-73
2023/05/05 10:28:53;;;;;;;2.80;1.60;;;;;;;-148.14;100.00;71486.72;1724768;75;41114;-78
2023/05/05 10:31:26;;;;;;;2.20;1.80;;;;;;;-148.14;100.00;71486.72;1724268;75;41685;-76
2023/05/05 10:33:56;;;;;;;2.10;1.60;;;;;;;-148.14;100.00;71486.72;1725482;75;41353;-73
2023/05/05 10:36:27;;;;;;;2.70;2.00;;;;;;;-148.14;100.00;71486.72;1723787;83;41205;-73
2023/05/05 10:39:01;;;;;;;4.40;2.00;;;;;;;-148.14;100.00;71486.72;1725007;75;41599;-73
2023/05/05 10:41:31;;;;;;;2.60;1.90;;;;;;;-148.14;100.00;71486.72;1723608;75;41886;-74
2023/05/05 10:44:01;;;;;;;2.60;1.80;;;;;;;-148.14;100.00;71486.72;1724718;75;41466;-74
2023/05/05 10:46:31;;;;;;;3.20;2.20;;;;;;;-148.14;100.00;71486.72;1723030;75;42691;-78
2023/05/05 10:49:06;;;;;;;2.00;1.70;;;;;;;-148.14;100.00;71486.72;1725786;75;41253;-73
2023/05/05 10:51:46;;;;;;;3.90;2.60;;;;;;;-148.14;100.00;71486.72;1722629;75;41546;-77
2023/05/05 10:54:22;;;;;;;2.70;2.00;;;;;;;-148.14;100.00;71486.72;1725186;75;41136;-76
2023/05/05 10:56:52;;;;;;;3.00;2.30;;;;;;;-148.14;100.00;71486.72;1722748;75;41804;-76
2023/05/05 10:59:46;;;;;;;3.40;2.20;;;;;;;-148.14;100.00;71486.72;1724456;75;42814;-75
2023/05/05 11:02:26;;;;;;;3.40;2.10;;;;;;;-148.14;100.00;71486.72;1724728;75;41278;-76
2023/05/05 11:05:13;;;;;;;4.00;2.20;;;;;;;-148.14;100.00;71486.72;1725383;83;41834;-76
2023/05/05 11:07:43;;;;;;;2.60;2.00;;;;;;;-148.14;100.00;71486.72;1724994;75;41212;-73
2023/05/05 11:10:17;;;;;;;2.40;2.00;;;;;;;-148.14;100.00;71486.72;1724495;75;41634;-76
2023/05/05 11:13:17;;;;;;;1.80;1.40;;;;;;;-148.14;100.00;71486.72;1725315;83;41566;-75
2023/05/05 11:15:46;;;;;;;2.40;1.80;;;;;;;-148.14;100.00;71486.72;1723675;75;42630;-75
2023/05/05 11:18:32;;;;;;;2.90;2.00;;;;;;;-148.14;100.00;71486.72;1725627;75;41589;-75
2023/05/05 11:21:07;;;;;;;2.90;1.80;;;;;;;-148.14;100.00;71486.72;1724012;75;41521;-75
2023/05/05 11:23:37;;;;;;;2.90;2.10;;;;;;;-148.14;100.00;71486.72;1726027;75;42087;-74
2023/05/05 11:26:09;;;;;;;2.60;2.20;;;;;;;-148.14;100.00;71486.72;1724139;75;42241;-76
2023/05/05 11:29:00;;;;;;;2.30;1.90;;;;;;;-148.14;100.00;71486.72;1725565;75;41138;-77